Terminal Aerodrome Forecast
Issued by NWS Austin/San Antonio, TX

Home | Current Version | Previous Version | Text Only | Print | Product List | Glossary On
Versions: 1 2 3 4 5 6 7 8 9 10 11 12 13
000
FTUS44 KEWX 231700
TAFAUS
TAF
KAUS 231730Z 2318/2424 05007KT P6SM SCT120 SCT250
     FM240400 VRB03KT P6SM SCT250
     FM241400 09008KT P6SM FEW030 SCT120=

USA.gov is the U.S. government's official web portal to all federal, state and local government web resources and services.